Time;durP1;ratioP1;P1;durP2;ratioP2;P2;SDS_P1;SDS_P2;PMS_P1;PMS_P2;Temp;Humidity;BMP_temperature;BMP_pressure;BME280_temperature;BME280_humidity;BME280_pressure;Samples;Min_cycle;Max_cycle;Signal;HPM_P1;HPM_P2
2021/12/09 00:00:43;;;;;;;1.17;0.50;;;;;;;;;;4878490;29;20063;-77
2021/12/09 00:03:12;;;;;;;0.47;0.40;;;;;;;;;;4874213;29;20021;-77
2021/12/09 00:05:41;;;;;;;1.20;0.52;;;;;;;;;;4878719;29;20553;-77
2021/12/09 00:08:08;;;;;;;1.17;0.70;;;;;;;;;;4878207;29;20020;-77
2021/12/09 00:10:34;;;;;;;1.27;0.52;;;;;;;;;;4878446;29;20438;-77
2021/12/09 00:13:01;;;;;;;1.50;0.60;;;;;;;;;;4878472;29;20021;-77
2021/12/09 00:15:27;;;;;;;2.58;0.65;;;;;;;;;;4877987;29;20053;-77
2021/12/09 00:17:53;;;;;;;2.65;0.80;;;;;;;;;;4877258;29;20053;-77
2021/12/09 00:20:19;;;;;;;0.57;0.43;;;;;;;;;;4878136;29;20187;-77
2021/12/09 00:22:46;;;;;;;2.92;0.50;;;;;;;;;;4877748;29;20025;-77
2021/12/09 00:25:12;;;;;;;2.25;0.60;;;;;;;;;;4878517;29;20554;-77
2021/12/09 00:27:38;;;;;;;3.85;0.80;;;;;;;;;;4878253;29;20514;-77
2021/12/09 00:30:05;;;;;;;1.10;0.60;;;;;;;;;;4877022;29;20401;-77
2021/12/09 00:32:31;;;;;;;1.55;0.60;;;;;;;;;;4878537;29;20021;-77
2021/12/09 00:34:57;;;;;;;1.95;0.70;;;;;;;;;;4877928;29;20076;-77
2021/12/09 00:37:38;;;;;;;0.60;0.32;;;;;;;;;;4878095;29;20052;-77
2021/12/09 00:40:05;;;;;;;5.90;1.05;;;;;;;;;;4878354;29;20461;-77
2021/12/09 00:42:31;;;;;;;1.33;0.50;;;;;;;;;;4842731;29;20513;-77
2021/12/09 00:44:58;;;;;;;3.13;0.50;;;;;;;;;;4875434;29;20501;-77
2021/12/09 00:47:24;;;;;;;3.15;0.55;;;;;;;;;;4878052;29;20033;-77
2021/12/09 00:49:50;;;;;;;0.82;0.40;;;;;;;;;;4861338;29;20041;-77
2021/12/09 00:52:17;;;;;;;3.08;0.60;;;;;;;;;;4877898;29;20025;-77
2021/12/09 00:54:44;;;;;;;2.42;0.50;;;;;;;;;;4878007;29;20504;-77
2021/12/09 00:57:11;;;;;;;1.20;0.68;;;;;;;;;;4877801;29;20025;-77
2021/12/09 00:59:37;;;;;;;0.82;0.40;;;;;;;;;;4876784;29;20036;-77
2021/12/09 01:02:04;;;;;;;0.82;0.40;;;;;;;;;;4860909;29;20029;-77
2021/12/09 01:04:30;;;;;;;0.80;0.40;;;;;;;;;;4877875;29;20036;-77
2021/12/09 01:06:56;;;;;;;0.90;0.47;;;;;;;;;;4877591;29;20120;-77
2021/12/09 01:09:22;;;;;;;0.40;0.32;;;;;;;;;;4877740;29;20033;-77
2021/12/09 01:11:48;;;;;;;0.70;0.35;;;;;;;;;;4878249;29;20029;-77
2021/12/09 01:14:14;;;;;;;1.05;0.50;;;;;;;;;;4876198;29;20048;-77
2021/12/09 01:16:40;;;;;;;2.58;0.70;;;;;;;;;;4877084;29;20485;-77
2021/12/09 01:19:06;;;;;;;1.55;1.10;;;;;;;;;;4877619;29;20053;-77
2021/12/09 01:21:32;;;;;;;2.83;0.65;;;;;;;;;;4877620;29;20048;-77
2021/12/09 01:23:58;;;;;;;1.05;0.60;;;;;;;;;;4877932;29;20037;-77
2021/12/09 01:26:26;;;;;;;2.38;0.65;;;;;;;;;;4876209;29;20044;-77
2021/12/09 01:28:57;;;;;;;1.77;0.43;;;;;;;;;;4877636;29;20029;-77
2021/12/09 01:31:32;;;;;;;0.63;0.50;;;;;;;;;;4876883;29;20028;-77
2021/12/09 01:34:03;;;;;;;3.20;0.60;;;;;;;;;;4861014;29;20097;-77
2021/12/09 01:36:33;;;;;;;2.05;0.60;;;;;;;;;;4880960;29;20021;-77
2021/12/09 01:38:59;;;;;;;1.70;0.60;;;;;;;;;;4880945;29;20044;-77
2021/12/09 01:41:26;;;;;;;2.03;0.60;;;;;;;;;;4873748;29;20494;-77
2021/12/09 01:43:53;;;;;;;3.15;0.60;;;;;;;;;;4862075;29;20104;-77
2021/12/09 01:46:20;;;;;;;0.77;0.30;;;;;;;;;;4862046;29;20033;-77
2021/12/09 01:48:48;;;;;;;1.20;0.45;;;;;;;;;;4862122;29;20033;-77
2021/12/09 01:51:14;;;;;;;1.85;0.40;;;;;;;;;;4862081;29;20033;-77
2021/12/09 01:53:41;;;;;;;0.93;0.47;;;;;;;;;;4865906;29;20029;-77
2021/12/09 01:56:09;;;;;;;1.27;0.32;;;;;;;;;;4880522;29;20029;-77
2021/12/09 01:58:35;;;;;;;1.55;0.52;;;;;;;;;;4880334;29;20438;-77
2021/12/09 02:01:01;;;;;;;0.90;0.30;;;;;;;;;;4880600;29;20104;-77
2021/12/09 02:03:27;;;;;;;1.65;0.40;;;;;;;;;;4880311;29;20036;-77
2021/12/09 02:05:54;;;;;;;0.85;0.50;;;;;;;;;;4880521;29;20036;-77
2021/12/09 02:08:20;;;;;;;2.17;0.50;;;;;;;;;;4880085;29;20509;-77
2021/12/09 02:10:47;;;;;;;1.10;0.40;;;;;;;;;;4880370;29;20029;-77
2021/12/09 02:13:14;;;;;;;1.20;0.52;;;;;;;;;;4863188;29;20382;-77
2021/12/09 02:15:40;;;;;;;0.98;0.35;;;;;;;;;;4863786;29;20025;-77
2021/12/09 02:18:07;;;;;;;1.02;0.40;;;;;;;;;;4879631;29;20093;-77
2021/12/09 02:20:35;;;;;;;2.72;0.40;;;;;;;;;;4876481;29;20037;-77
2021/12/09 02:23:06;;;;;;;0.43;0.30;;;;;;;;;;4861578;29;20029;-77
2021/12/09 02:25:33;;;;;;;2.30;0.52;;;;;;;;;;4861789;29;20113;-77
2021/12/09 02:27:59;;;;;;;1.83;0.40;;;;;;;;;;4862064;29;20040;-77
2021/12/09 02:30:25;;;;;;;0.65;0.40;;;;;;;;;;4872791;29;20018;-77
2021/12/09 02:32:51;;;;;;;0.57;0.30;;;;;;;;;;4860192;29;20069;-77
2021/12/09 02:35:17;;;;;;;4.30;0.68;;;;;;;;;;4861549;29;20085;-77
2021/12/09 02:37:44;;;;;;;0.30;0.30;;;;;;;;;;4861264;29;20125;-77
2021/12/09 02:40:11;;;;;;;1.15;0.60;;;;;;;;;;4867129;29;20029;-77
2021/12/09 02:42:37;;;;;;;0.63;0.40;;;;;;;;;;4878576;29;20092;-77
2021/12/09 02:45:05;;;;;;;1.75;0.60;;;;;;;;;;4862871;29;20490;-77
2021/12/09 02:47:31;;;;;;;1.42;0.50;;;;;;;;;;4879823;29;20029;-77
2021/12/09 02:49:57;;;;;;;0.73;0.40;;;;;;;;;;4864143;29;20064;-77
2021/12/09 02:52:23;;;;;;;1.92;0.63;;;;;;;;;;4860704;29;20043;-77
2021/12/09 02:54:49;;;;;;;1.77;0.55;;;;;;;;;;4860687;29;20021;-77
2021/12/09 02:57:15;;;;;;;1.00;0.50;;;;;;;;;;4860995;29;20035;-77
2021/12/09 02:59:41;;;;;;;2.03;0.93;;;;;;;;;;4860715;29;20108;-77
2021/12/09 03:02:10;;;;;;;0.63;0.40;;;;;;;;;;4860666;29;20069;-77
2021/12/09 03:04:50;;;;;;;0.77;0.57;;;;;;;;;;4874671;29;20029;-77
2021/12/09 03:07:31;;;;;;;3.55;0.40;;;;;;;;;;4879416;29;20036;-77
2021/12/09 03:10:01;;;;;;;0.40;0.37;;;;;;;;;;4878799;29;20021;-77
2021/12/09 03:12:31;;;;;;;3.35;0.50;;;;;;;;;;4878585;29;20516;-77
2021/12/09 03:14:57;;;;;;;1.50;0.63;;;;;;;;;;4879393;29;20120;-77
2021/12/09 03:17:23;;;;;;;1.73;0.52;;;;;;;;;;4877826;29;20053;-77
2021/12/09 03:19:50;;;;;;;1.73;0.60;;;;;;;;;;4878853;29;20037;-77
2021/12/09 03:22:17;;;;;;;2.35;0.75;;;;;;;;;;4879373;29;20032;-77
2021/12/09 03:24:43;;;;;;;2.47;0.60;;;;;;;;;;4878363;29;20037;-77
2021/12/09 03:27:09;;;;;;;1.67;0.57;;;;;;;;;;4879165;29;20541;-77
2021/12/09 03:29:35;;;;;;;0.70;0.50;;;;;;;;;;4878825;29;20393;-77
2021/12/09 03:32:04;;;;;;;3.60;0.70;;;;;;;;;;4861177;29;20071;-76
2021/12/09 03:34:32;;;;;;;3.45;0.98;;;;;;;;;;4879186;29;20091;-77
2021/12/09 03:36:59;;;;;;;1.42;0.77;;;;;;;;;;4861442;29;20120;-77
2021/12/09 03:39:27;;;;;;;4.18;0.80;;;;;;;;;;4877991;29;20481;-77
2021/12/09 03:41:54;;;;;;;3.13;0.70;;;;;;;;;;4878662;29;20065;-77
2021/12/09 03:44:21;;;;;;;2.20;0.70;;;;;;;;;;4878482;29;20460;-77
2021/12/09 03:46:47;;;;;;;3.25;0.80;;;;;;;;;;4878367;29;20076;-77
2021/12/09 03:49:14;;;;;;;4.53;1.02;;;;;;;;;;4878877;29;20033;-77
2021/12/09 03:51:40;;;;;;;4.18;0.77;;;;;;;;;;4878407;29;20669;-77
2021/12/09 03:54:07;;;;;;;3.88;0.80;;;;;;;;;;4878189;29;20021;-77
2021/12/09 03:56:33;;;;;;;2.45;0.77;;;;;;;;;;4878021;29;20029;-77
2021/12/09 03:58:59;;;;;;;5.47;1.00;;;;;;;;;;4872515;29;20367;-77
2021/12/09 04:01:25;;;;;;;3.40;1.00;;;;;;;;;;4859908;29;20036;-77
2021/12/09 04:03:52;;;;;;;6.75;0.85;;;;;;;;;;4876533;29;20622;-77
2021/12/09 04:06:18;;;;;;;3.15;0.98;;;;;;;;;;4862265;29;20124;-77
2021/12/09 04:08:44;;;;;;;3.53;0.90;;;;;;;;;;4877698;29;20037;-77
2021/12/09 04:11:10;;;;;;;4.93;1.63;;;;;;;;;;4868093;29;20026;-77
2021/12/09 04:13:38;;;;;;;8.70;1.10;;;;;;;;;;4873868;29;20497;-77
2021/12/09 04:16:07;;;;;;;1.40;0.80;;;;;;;;;;4877966;29;20537;-77
2021/12/09 04:18:33;;;;;;;2.10;0.88;;;;;;;;;;4878543;29;20132;-77
2021/12/09 04:20:59;;;;;;;3.65;0.85;;;;;;;;;;4878026;29;20116;-77
2021/12/09 04:23:25;;;;;;;3.05;0.90;;;;;;;;;;4877694;29;20090;-77
2021/12/09 04:25:52;;;;;;;4.40;0.80;;;;;;;;;;4878468;29;20062;-77
2021/12/09 04:28:18;;;;;;;3.15;0.90;;;;;;;;;;4878133;29;20063;-77
2021/12/09 04:30:44;;;;;;;4.72;1.00;;;;;;;;;;4877572;29;20104;-77
2021/12/09 04:33:10;;;;;;;2.28;0.75;;;;;;;;;;4878193;29;20057;-77
2021/12/09 04:35:37;;;;;;;1.42;0.70;;;;;;;;;;4878133;29;20021;-77
2021/12/09 04:38:03;;;;;;;4.43;0.70;;;;;;;;;;4876936;29;20036;-77
2021/12/09 04:40:29;;;;;;;3.90;1.13;;;;;;;;;;4878150;29;20572;-77
2021/12/09 04:42:55;;;;;;;3.50;1.10;;;;;;;;;;4877831;29;20037;-77
2021/12/09 04:45:21;;;;;;;5.78;1.73;;;;;;;;;;4878152;29;20084;-77
2021/12/09 04:47:47;;;;;;;2.13;0.80;;;;;;;;;;4878114;29;20039;-77
2021/12/09 04:50:13;;;;;;;2.35;0.90;;;;;;;;;;4877545;29;20112;-77
2021/12/09 04:52:40;;;;;;;2.22;0.73;;;;;;;;;;4877732;29;20481;-77
2021/12/09 04:55:06;;;;;;;5.03;0.93;;;;;;;;;;4877975;29;20048;-77
2021/12/09 04:57:33;;;;;;;0.90;0.45;;;;;;;;;;4877851;29;20164;-77
2021/12/09 04:59:59;;;;;;;0.90;0.40;;;;;;;;;;4877891;29;20033;-77
2021/12/09 05:02:41;;;;;;;2.67;0.60;;;;;;;;;;4872164;29;20390;-77
2021/12/09 05:05:08;;;;;;;3.03;0.50;;;;;;;;;;4858781;29;20026;-76
2021/12/09 05:07:35;;;;;;;2.42;0.80;;;;;;;;;;4850632;29;20041;-77
2021/12/09 05:10:01;;;;;;;4.55;1.00;;;;;;;;;;4880873;29;20036;-77
2021/12/09 05:12:27;;;;;;;6.45;1.35;;;;;;;;;;4881390;29;20469;-77
2021/12/09 05:14:53;;;;;;;2.47;0.82;;;;;;;;;;4881517;29;20036;-78
2021/12/09 05:17:20;;;;;;;3.05;0.50;;;;;;;;;;4881153;29;20059;-78
2021/12/09 05:19:46;;;;;;;3.35;0.70;;;;;;;;;;4879250;29;20060;-79
2021/12/09 05:22:13;;;;;;;3.08;0.90;;;;;;;;;;4881265;29;20040;-79
2021/12/09 05:24:40;;;;;;;5.97;0.70;;;;;;;;;;4859854;29;20458;-81
2021/12/09 05:27:09;;;;;;;2.20;0.60;;;;;;;;;;4876110;29;20588;-81
2021/12/09 05:29:40;;;;;;;3.13;0.63;;;;;;;;;;4876146;29;20025;-81
2021/12/09 05:32:07;;;;;;;2.00;0.80;;;;;;;;;;4880533;29;20036;-79
2021/12/09 05:34:36;;;;;;;1.67;0.60;;;;;;;;;;4867479;29;20463;-79
2021/12/09 05:37:03;;;;;;;1.63;0.70;;;;;;;;;;4861624;29;20155;-79
2021/12/09 05:39:29;;;;;;;4.05;0.70;;;;;;;;;;4866478;29;20504;-79
2021/12/09 05:41:55;;;;;;;2.00;0.60;;;;;;;;;;4878074;29;20484;-79
2021/12/09 05:44:21;;;;;;;2.80;0.80;;;;;;;;;;4871228;29;20037;-79
2021/12/09 05:46:48;;;;;;;2.88;0.60;;;;;;;;;;4860651;29;20033;-79
2021/12/09 05:49:15;;;;;;;1.92;0.63;;;;;;;;;;4861891;29;20037;-79
2021/12/09 05:51:41;;;;;;;2.90;1.30;;;;;;;;;;4867847;29;20093;-79
2021/12/09 05:54:08;;;;;;;4.65;1.20;;;;;;;;;;4879582;29;20516;-78
2021/12/09 05:56:34;;;;;;;11.32;4.85;;;;;;;;;;4876266;29;20033;-79
2021/12/09 05:59:00;;;;;;;1.35;0.80;;;;;;;;;;4867656;29;20030;-78
2021/12/09 06:01:27;;;;;;;3.88;0.73;;;;;;;;;;4873137;29;20078;-79
2021/12/09 06:03:53;;;;;;;5.93;0.80;;;;;;;;;;4862538;29;20029;-79
2021/12/09 06:06:19;;;;;;;1.92;0.70;;;;;;;;;;4861660;29;20038;-79
2021/12/09 06:08:46;;;;;;;1.13;0.50;;;;;;;;;;4868002;29;20061;-81
2021/12/09 06:11:12;;;;;;;3.17;1.33;;;;;;;;;;4874918;29;20033;-78
2021/12/09 06:13:38;;;;;;;1.92;0.90;;;;;;;;;;4872773;29;20045;-79
2021/12/09 06:16:06;;;;;;;1.45;0.60;;;;;;;;;;4861541;29;20026;-79
2021/12/09 06:18:32;;;;;;;2.67;0.80;;;;;;;;;;4870240;29;20497;-79
2021/12/09 06:20:58;;;;;;;1.15;0.50;;;;;;;;;;4879279;29;20040;-79
2021/12/09 06:23:24;;;;;;;4.53;1.08;;;;;;;;;;4871459;29;20035;-80
2021/12/09 06:25:50;;;;;;;2.15;0.80;;;;;;;;;;4861959;29;20035;-79
2021/12/09 06:28:17;;;;;;;4.78;1.23;;;;;;;;;;4861136;29;20474;-79
2021/12/09 06:30:44;;;;;;;4.50;1.20;;;;;;;;;;4871527;29;20033;-79
2021/12/09 06:33:10;;;;;;;3.63;1.45;;;;;;;;;;4859486;29;20078;-79
2021/12/09 06:35:37;;;;;;;8.73;2.80;;;;;;;;;;4861730;29;20033;-79
2021/12/09 06:38:04;;;;;;;4.40;1.67;;;;;;;;;;4861107;29;20026;-79
2021/12/09 06:40:30;;;;;;;4.65;1.20;;;;;;;;;;4861323;29;20398;-79
2021/12/09 06:42:56;;;;;;;7.75;1.15;;;;;;;;;;4861161;29;20414;-79
2021/12/09 06:45:23;;;;;;;3.67;1.17;;;;;;;;;;4859752;29;20033;-79
2021/12/09 06:47:50;;;;;;;7.15;1.17;;;;;;;;;;4861258;29;20048;-79
2021/12/09 06:50:17;;;;;;;1.60;0.80;;;;;;;;;;4860808;29;20038;-79
2021/12/09 06:52:43;;;;;;;2.72;1.05;;;;;;;;;;4861143;29;20022;-78
2021/12/09 06:55:11;;;;;;;1.60;0.85;;;;;;;;;;4861318;29;20037;-79
2021/12/09 06:57:38;;;;;;;2.85;1.25;;;;;;;;;;4860937;29;20029;-79
2021/12/09 07:00:09;;;;;;;7.90;1.45;;;;;;;;;;4860987;29;20025;-78
2021/12/09 07:02:35;;;;;;;2.90;0.90;;;;;;;;;;4861264;29;20068;-79
2021/12/09 07:05:01;;;;;;;7.47;0.95;;;;;;;;;;4860685;29;20033;-79
2021/12/09 07:07:27;;;;;;;3.63;1.65;;;;;;;;;;4860977;29;20036;-79
2021/12/09 07:09:53;;;;;;;4.90;1.40;;;;;;;;;;4860776;29;20058;-79
2021/12/09 07:12:20;;;;;;;4.68;1.52;;;;;;;;;;4860516;29;20451;-79
2021/12/09 07:14:46;;;;;;;3.83;1.20;;;;;;;;;;4859386;29;20484;-79
2021/12/09 07:17:12;;;;;;;3.97;0.90;;;;;;;;;;4860114;29;20142;-79
2021/12/09 07:19:38;;;;;;;3.42;0.88;;;;;;;;;;4877195;29;20047;-79
2021/12/09 07:22:05;;;;;;;7.50;1.20;;;;;;;;;;4879131;29;20033;-79
2021/12/09 07:24:32;;;;;;;3.30;1.17;;;;;;;;;;4878978;29;20500;-79
2021/12/09 07:26:58;;;;;;;6.55;1.20;;;;;;;;;;4879034;29;20056;-79
2021/12/09 07:29:25;;;;;;;2.13;0.90;;;;;;;;;;4878785;29;20084;-79
2021/12/09 07:31:51;;;;;;;2.60;1.17;;;;;;;;;;4860916;29;20029;-79
2021/12/09 07:34:17;;;;;;;4.95;1.20;;;;;;;;;;4878642;29;20056;-79
2021/12/09 07:36:44;;;;;;;8.45;1.13;;;;;;;;;;4879083;29;20025;-79
2021/12/09 07:39:10;;;;;;;7.68;0.70;;;;;;;;;;4878792;29;20040;-79
2021/12/09 07:41:36;;;;;;;3.95;0.98;;;;;;;;;;4878905;29;20033;-79
2021/12/09 07:44:05;;;;;;;3.08;0.90;;;;;;;;;;4878900;29;20037;-79
2021/12/09 07:46:31;;;;;;;4.57;1.10;;;;;;;;;;4878070;29;20116;-79
2021/12/09 07:48:57;;;;;;;3.60;1.10;;;;;;;;;;4878724;29;20041;-79
2021/12/09 07:51:23;;;;;;;6.32;1.13;;;;;;;;;;4878220;29;20512;-79
2021/12/09 07:53:49;;;;;;;6.13;1.48;;;;;;;;;;4878776;29;20074;-79
2021/12/09 07:56:15;;;;;;;4.63;1.13;;;;;;;;;;4878432;29;20400;-79
2021/12/09 07:58:41;;;;;;;5.68;1.35;;;;;;;;;;4861643;29;20513;-78
2021/12/09 08:01:07;;;;;;;13.20;1.83;;;;;;;;;;4859377;29;20451;-80
2021/12/09 08:03:34;;;;;;;59.42;23.17;;;;;;;;;;4867671;29;20606;-79
2021/12/09 08:06:00;;;;;;;5.28;2.80;;;;;;;;;;4850487;29;20093;-79
2021/12/09 08:08:26;;;;;;;10.88;4.55;;;;;;;;;;4864659;29;20036;-79
2021/12/09 08:10:52;;;;;;;9.88;1.95;;;;;;;;;;4866029;29;20088;-79
2021/12/09 08:13:19;;;;;;;3.00;0.90;;;;;;;;;;4854127;29;20417;-79
2021/12/09 08:15:50;;;;;;;4.55;1.35;;;;;;;;;;4871922;29;20033;-79
2021/12/09 08:20:47;;;;;;;5.47;1.15;;;;;;;;;;4874573;29;20262;-79
2021/12/09 08:23:13;;;;;;;7.28;1.10;;;;;;;;;;4875749;29;20113;-77
2021/12/09 08:25:39;;;;;;;3.17;1.10;;;;;;;;;;4874089;29;20085;-79
2021/12/09 08:28:05;;;;;;;6.40;1.10;;;;;;;;;;4863846;29;20082;-77
2021/12/09 08:30:32;;;;;;;8.82;1.13;;;;;;;;;;4847416;29;20032;-79
2021/12/09 08:32:58;;;;;;;4.78;1.30;;;;;;;;;;4869572;29;20056;-77
2021/12/09 08:35:25;;;;;;;3.42;1.10;;;;;;;;;;4864791;29;20087;-79
2021/12/09 08:37:54;;;;;;;5.57;1.15;;;;;;;;;;4869269;29;20386;-77
2021/12/09 08:40:20;;;;;;;3.65;1.13;;;;;;;;;;4869300;29;20037;-79
2021/12/09 08:42:49;;;;;;;6.03;1.27;;;;;;;;;;4868891;29;20032;-79
2021/12/09 08:45:16;;;;;;;4.43;0.85;;;;;;;;;;4872875;29;20040;-77
2021/12/09 08:47:42;;;;;;;4.20;0.90;;;;;;;;;;4870734;29;20036;-79
2021/12/09 08:50:09;;;;;;;3.85;1.60;;;;;;;;;;4853105;29;20037;-79
2021/12/09 08:52:35;;;;;;;7.07;1.23;;;;;;;;;;4870895;29;20070;-77
2021/12/09 08:55:02;;;;;;;5.38;1.13;;;;;;;;;;4872560;29;20476;-79
2021/12/09 08:57:28;;;;;;;2.55;1.00;;;;;;;;;;4859227;29;20028;-79
2021/12/09 08:59:54;;;;;;;4.43;1.05;;;;;;;;;;4877529;29;20104;-77
2021/12/09 09:02:20;;;;;;;9.85;4.10;;;;;;;;;;4873344;29;20089;-79
2021/12/09 09:04:47;;;;;;;3.83;2.08;;;;;;;;;;4876776;29;20033;-79
2021/12/09 09:07:13;;;;;;;2.10;0.77;;;;;;;;;;4877895;29;20036;-79
2021/12/09 09:09:41;;;;;;;6.53;1.13;;;;;;;;;;4856200;29;20041;-80
2021/12/09 09:12:09;;;;;;;4.55;0.80;;;;;;;;;;4873407;29;20029;-78
2021/12/09 09:14:36;;;;;;;4.53;0.95;;;;;;;;;;4873626;29;20025;-80
2021/12/09 09:17:02;;;;;;;3.90;1.05;;;;;;;;;;4871207;29;20041;-80
2021/12/09 09:19:28;;;;;;;11.70;1.30;;;;;;;;;;4870616;29;20037;-78
2021/12/09 09:21:54;;;;;;;4.75;1.48;;;;;;;;;;4880424;29;20116;-80
2021/12/09 09:24:20;;;;;;;6.57;1.05;;;;;;;;;;4873892;29;20040;-80
2021/12/09 09:26:46;;;;;;;6.47;1.33;;;;;;;;;;4868926;29;20033;-79
2021/12/09 09:29:12;;;;;;;3.20;0.93;;;;;;;;;;4873002;29;20041;-80
2021/12/09 09:31:40;;;;;;;4.20;0.90;;;;;;;;;;4875080;29;20089;-80
2021/12/09 09:34:07;;;;;;;4.68;1.15;;;;;;;;;;4876160;29;20041;-80
2021/12/09 09:36:34;;;;;;;4.25;0.90;;;;;;;;;;4856218;29;20036;-80
2021/12/09 09:39:11;;;;;;;5.60;0.93;;;;;;;;;;4871721;29;20089;-80
2021/12/09 09:41:38;;;;;;;5.55;0.98;;;;;;;;;;4870776;29;20029;-80
2021/12/09 09:44:13;;;;;;;5.03;1.20;;;;;;;;;;4873061;29;20033;-80
2021/12/09 09:46:40;;;;;;;6.40;1.10;;;;;;;;;;4861624;29;20442;-80
2021/12/09 09:49:06;;;;;;;7.38;1.40;;;;;;;;;;4875832;29;20101;-81
2021/12/09 09:51:33;;;;;;;4.30;1.10;;;;;;;;;;4875095;29;20089;-80
2021/12/09 09:54:00;;;;;;;2.70;1.25;;;;;;;;;;4871343;29;20025;-82
2021/12/09 09:56:26;;;;;;;4.35;1.05;;;;;;;;;;4850987;29;20072;-80
2021/12/09 09:58:56;;;;;;;4.35;1.02;;;;;;;;;;4871006;29;20748;-80
2021/12/09 10:01:23;;;;;;;3.40;0.90;;;;;;;;;;4876086;29;20081;-80
2021/12/09 10:03:57;;;;;;;6.88;1.70;;;;;;;;;;4876162;29;20029;-80
2021/12/09 10:06:23;;;;;;;7.88;1.40;;;;;;;;;;4874128;29;20664;-82
2021/12/09 10:08:49;;;;;;;11.07;1.27;;;;;;;;;;4866738;29;20065;-80
2021/12/09 10:11:15;;;;;;;4.60;1.27;;;;;;;;;;4871047;29;20029;-80
2021/12/09 10:13:42;;;;;;;4.80;1.20;;;;;;;;;;4878211;29;20090;-80
2021/12/09 10:16:18;;;;;;;5.95;1.10;;;;;;;;;;4875935;29;20219;-80
2021/12/09 10:18:45;;;;;;;7.78;1.25;;;;;;;;;;4872738;29;20060;-80
2021/12/09 10:21:13;;;;;;;5.88;1.55;;;;;;;;;;4878263;29;20033;-80
2021/12/09 10:23:39;;;;;;;9.57;3.78;;;;;;;;;;4879185;29;20033;-80
2021/12/09 10:26:31;;;;;;;3.38;1.17;;;;;;;;;;4875860;29;20039;-80
2021/12/09 10:29:10;;;;;;;7.15;1.60;;;;;;;;;;4855293;29;20057;-80
2021/12/09 10:31:40;;;;;;;6.10;1.70;;;;;;;;;;4873116;29;20032;-80
2021/12/09 10:34:31;;;;;;;8.13;1.85;;;;;;;;;;4871132;29;20068;-80
2021/12/09 10:37:09;;;;;;;4.90;1.48;;;;;;;;;;4875819;29;20072;-80
2021/12/09 10:39:42;;;;;;;7.82;1.15;;;;;;;;;;4876838;29;20035;-80
2021/12/09 10:42:15;;;;;;;13.00;1.23;;;;;;;;;;4877127;29;20029;-80
2021/12/09 10:44:44;;;;;;;6.53;1.30;;;;;;;;;;4873896;29;20089;-80
2021/12/09 10:47:20;;;;;;;4.95;1.00;;;;;;;;;;4870366;29;20467;-80
2021/12/09 10:53:00;;;;;;;11.10;1.15;;;;;;;;;;4806390;29;20038;-80
2021/12/09 10:55:29;;;;;;;8.85;1.30;;;;;;;;;;4804724;29;20050;-80
2021/12/09 10:58:01;;;;;;;4.95;1.20;;;;;;;;;;4804758;29;20060;-80
2021/12/09 11:00:30;;;;;;;7.57;2.25;;;;;;;;;;4801110;29;20042;-80
2021/12/09 11:03:29;;;;;;;8.85;1.45;;;;;;;;;;4808103;29;20650;-80
2021/12/09 11:05:59;;;;;;;6.95;1.42;;;;;;;;;;4730893;30;20127;-80
2021/12/09 11:08:26;;;;;;;9.13;1.55;;;;;;;;;;4731368;30;20050;-80
2021/12/09 11:11:05;;;;;;;21.08;2.08;;;;;;;;;;4730465;30;20029;-80
2021/12/09 11:13:37;;;;;;;6.13;1.13;;;;;;;;;;4730470;30;20057;-80
2021/12/09 11:16:05;;;;;;;5.63;1.38;;;;;;;;;;4732301;30;20035;-80
2021/12/09 11:18:39;;;;;;;6.45;1.52;;;;;;;;;;4733239;30;20084;-80
2021/12/09 11:21:07;;;;;;;5.95;1.30;;;;;;;;;;4731416;30;20094;-80
2021/12/09 11:23:35;;;;;;;5.40;1.40;;;;;;;;;;4728683;30;20036;-80
2021/12/09 11:26:22;;;;;;;7.55;1.80;;;;;;;;;;4728773;30;20434;-82
2021/12/09 11:28:55;;;;;;;6.00;1.30;;;;;;;;;;4767659;29;20083;-79
2021/12/09 11:31:24;;;;;;;8.07;1.95;;;;;;;;;;4782900;29;20042;-80
2021/12/09 11:33:55;;;;;;;4.70;1.20;;;;;;;;;;4792248;29;20042;-80
2021/12/09 11:36:39;;;;;;;14.30;1.30;;;;;;;;;;4798601;29;20083;-80
2021/12/09 11:39:17;;;;;;;6.10;1.33;;;;;;;;;;4803275;29;20079;-80
2021/12/09 11:41:44;;;;;;;4.40;1.00;;;;;;;;;;4837660;29;20128;-80
2021/12/09 11:44:11;;;;;;;9.38;1.40;;;;;;;;;;4876096;29;20466;-80
2021/12/09 11:46:38;;;;;;;5.47;1.05;;;;;;;;;;4874186;29;20025;-80
2021/12/09 11:49:05;;;;;;;6.18;1.40;;;;;;;;;;4870233;29;20044;-82
2021/12/09 11:51:31;;;;;;;8.13;1.35;;;;;;;;;;4868011;29;20025;-79
2021/12/09 11:53:58;;;;;;;5.80;1.05;;;;;;;;;;4874156;29;20071;-79
2021/12/09 11:56:33;;;;;;;9.75;1.27;;;;;;;;;;4846665;29;20494;-80
2021/12/09 12:15:18;;;;;;;4.05;1.55;;;;;;;;;;4872346;29;20438;-80
2021/12/09 12:18:14;;;;;;;5.97;1.40;;;;;;;;;;4871346;29;20120;-80
2021/12/09 12:20:53;;;;;;;6.20;1.38;;;;;;;;;;4854957;29;20038;-80
2021/12/09 12:23:33;;;;;;;10.02;2.47;;;;;;;;;;4847001;29;20037;-80
2021/12/09 12:31:33;;;;;;;9.52;1.65;;;;;;;;;;4870197;29;20042;-80
2021/12/09 12:39:46;;;;;;;8.52;1.42;;;;;;;;;;4860135;29;20033;-80
2021/12/09 12:42:27;;;;;;;7.97;1.50;;;;;;;;;;4868367;29;20132;-80
2021/12/09 12:45:16;;;;;;;8.55;1.67;;;;;;;;;;4860433;29;20045;-80
2021/12/09 12:47:52;;;;;;;5.93;1.33;;;;;;;;;;4863560;29;20104;-80
2021/12/09 12:50:20;;;;;;;11.55;1.42;;;;;;;;;;4852017;29;20128;-80
2021/12/09 12:52:47;;;;;;;11.38;1.70;;;;;;;;;;4859661;29;20030;-80
2021/12/09 12:55:14;;;;;;;7.07;1.58;;;;;;;;;;4846244;29;20099;-80
2021/12/09 12:57:44;;;;;;;7.93;1.40;;;;;;;;;;4869828;29;20029;-79
2021/12/09 13:00:10;;;;;;;10.13;1.92;;;;;;;;;;4857810;29;20045;-80
2021/12/09 13:05:36;;;;;;;10.95;1.73;;;;;;;;;;4860060;29;20041;-79
2021/12/09 13:15:58;;;;;;;15.07;2.10;;;;;;;;;;4874027;29;20033;-80
2021/12/09 13:19:00;;;;;;;9.43;1.50;;;;;;;;;;4870928;29;20112;-80
2021/12/09 13:21:45;;;;;;;17.35;2.80;;;;;;;;;;4868522;29;20021;-80
2021/12/09 13:24:20;;;;;;;12.10;2.05;;;;;;;;;;4872556;29;20038;-80
2021/12/09 13:29:39;;;;;;;14.85;2.10;;;;;;;;;;4871972;29;20060;-80
2021/12/09 13:32:29;;;;;;;13.32;1.60;;;;;;;;;;4877460;29;20028;-80
2021/12/09 13:35:08;;;;;;;8.27;1.65;;;;;;;;;;4869539;29;20022;-80
2021/12/09 13:37:55;;;;;;;13.98;2.30;;;;;;;;;;4866599;29;20025;-79
2021/12/09 13:45:45;;;;;;;7.10;1.48;;;;;;;;;;4874216;29;20453;-80
2021/12/09 13:54:30;;;;;;;8.50;1.35;;;;;;;;;;4812985;29;20431;-80
2021/12/09 13:56:57;;;;;;;9.52;2.03;;;;;;;;;;4816024;29;20191;-80
2021/12/09 13:59:24;;;;;;;7.82;1.50;;;;;;;;;;4806971;29;20042;-80
2021/12/09 14:01:51;;;;;;;13.00;2.35;;;;;;;;;;4802876;29;20050;-80
2021/12/09 14:04:20;;;;;;;11.32;1.50;;;;;;;;;;4816379;29;20511;-80
2021/12/09 14:06:51;;;;;;;4.95;1.23;;;;;;;;;;4820157;29;20448;-80
2021/12/09 14:09:18;;;;;;;6.28;1.30;;;;;;;;;;4816745;29;20495;-80
2021/12/09 14:11:48;;;;;;;8.20;1.70;;;;;;;;;;4807897;29;20031;-80
2021/12/09 14:14:19;;;;;;;13.77;1.48;;;;;;;;;;4820555;29;20038;-80
2021/12/09 14:16:53;;;;;;;9.35;1.20;;;;;;;;;;4818553;29;20487;-79
2021/12/09 14:21:48;;;;;;;6.88;1.02;;;;;;;;;;4819694;29;20041;-80
2021/12/09 14:24:22;;;;;;;9.52;1.38;;;;;;;;;;4877416;29;20168;-80
2021/12/09 14:26:54;;;;;;;5.80;0.95;;;;;;;;;;4876154;29;20033;-80
2021/12/09 14:29:20;;;;;;;11.57;1.83;;;;;;;;;;4860272;29;20044;-80
2021/12/09 14:31:48;;;;;;;10.13;1.52;;;;;;;;;;4867882;29;20045;-80
2021/12/09 14:34:15;;;;;;;9.20;1.17;;;;;;;;;;4877633;29;20378;-79
2021/12/09 14:36:41;;;;;;;8.93;1.10;;;;;;;;;;4864283;29;20033;-81
2021/12/09 14:39:09;;;;;;;3.63;0.88;;;;;;;;;;4875840;29;20104;-80
2021/12/09 14:41:36;;;;;;;10.95;1.55;;;;;;;;;;4873116;29;20052;-77
2021/12/09 14:44:05;;;;;;;3.20;0.85;;;;;;;;;;4869121;29;20055;-80
2021/12/09 14:46:36;;;;;;;6.95;1.00;;;;;;;;;;4862123;29;20441;-80
2021/12/09 14:49:13;;;;;;;5.30;1.30;;;;;;;;;;4875034;29;20025;-80
2021/12/09 14:51:41;;;;;;;6.90;0.95;;;;;;;;;;4854010;29;20041;-80
2021/12/09 14:54:08;;;;;;;7.93;1.20;;;;;;;;;;4871071;29;20021;-80
2021/12/09 14:56:41;;;;;;;13.07;1.50;;;;;;;;;;4869332;29;20045;-81
2021/12/09 14:59:16;;;;;;;8.52;1.20;;;;;;;;;;4872543;29;20484;-80
2021/12/09 15:01:43;;;;;;;10.90;1.67;;;;;;;;;;4871849;29;20499;-80
2021/12/09 15:04:16;;;;;;;8.18;1.10;;;;;;;;;;4857334;29;20379;-80
2021/12/09 15:06:50;;;;;;;4.85;1.30;;;;;;;;;;4873121;29;20039;-80
2021/12/09 15:09:18;;;;;;;7.93;1.63;;;;;;;;;;4874262;29;20485;-80
2021/12/09 15:11:48;;;;;;;7.50;1.60;;;;;;;;;;4878459;29;20036;-82
2021/12/09 15:14:25;;;;;;;7.90;1.70;;;;;;;;;;4877146;29;20069;-80
2021/12/09 15:17:09;;;;;;;6.50;1.40;;;;;;;;;;4848588;29;20458;-80
2021/12/09 15:19:36;;;;;;;14.57;1.35;;;;;;;;;;4870739;29;20121;-80
2021/12/09 15:22:10;;;;;;;5.88;1.30;;;;;;;;;;4871133;29;20039;-80
2021/12/09 15:24:37;;;;;;;6.00;1.58;;;;;;;;;;4869177;29;20050;-80
2021/12/09 15:27:03;;;;;;;4.22;1.05;;;;;;;;;;4859805;29;20089;-80
2021/12/09 15:29:29;;;;;;;8.23;1.38;;;;;;;;;;4873881;29;20037;-80
2021/12/09 15:32:06;;;;;;;31.38;2.47;;;;;;;;;;4876631;29;20025;-80
2021/12/09 15:34:37;;;;;;;5.22;1.60;;;;;;;;;;4868689;29;20447;-80
2021/12/09 15:37:11;;;;;;;16.75;1.70;;;;;;;;;;4850431;29;20081;-80
2021/12/09 15:39:38;;;;;;;6.80;1.13;;;;;;;;;;4875076;29;20116;-80
2021/12/09 15:42:12;;;;;;;6.28;0.98;;;;;;;;;;4868237;29;20025;-80
2021/12/09 15:44:43;;;;;;;5.88;1.15;;;;;;;;;;4867309;29;20064;-80
2021/12/09 15:47:11;;;;;;;6.40;1.38;;;;;;;;;;4872127;29;20045;-80
2021/12/09 15:49:45;;;;;;;10.50;1.75;;;;;;;;;;4859135;29;20510;-80